sensor_id;sensor_type;location;lat;lon;timestamp;pressure;altitude;pressure_sealevel;temperature;humidity
9189;BME280;34313;50.780;6.084;2023-01-28T00:02:01;100643.66;;;2.22;100.00
9189;BME280;34313;50.780;6.084;2023-01-28T00:04:26;100644.50;;;2.21;100.00
9189;BME280;34313;50.780;6.084;2023-01-28T00:06:51;100648.84;;;2.23;100.00
9189;BME280;34313;50.780;6.084;2023-01-28T00:09:17;100642.78;;;2.24;100.00
9189;BME280;34313;50.780;6.084;2023-01-28T00:11:43;100636.75;;;2.16;100.00
9189;BME280;34313;50.780;6.084;2023-01-28T00:14:10;100636.75;;;2.19;100.00
9189;BME280;34313;50.780;6.084;2023-01-28T00:16:36;100634.09;;;2.24;100.00
9189;BME280;34313;50.780;6.084;2023-01-28T00:19:01;100626.34;;;2.18;100.00
9189;BME280;34313;50.780;6.084;2023-01-28T00:21:27;100644.56;;;2.13;100.00
9189;BME280;34313;50.780;6.084;2023-01-28T00:23:53;100642.81;;;2.21;100.00
9189;BME280;34313;50.780;6.084;2023-01-28T00:26:20;100641.97;;;2.08;100.00
9189;BME280;34313;50.780;6.084;2023-01-28T00:28:46;100641.13;;;2.13;100.00
9189;BME280;34313;50.780;6.084;2023-01-28T00:31:23;100637.66;;;2.11;100.00
9189;BME280;34313;50.780;6.084;2023-01-28T00:33:50;100635.06;;;2.06;100.00
9189;BME280;34313;50.780;6.084;2023-01-28T00:36:17;100634.22;;;2.02;100.00
9189;BME280;34313;50.780;6.084;2023-01-28T00:38:57;100632.50;;;2.00;100.00
9189;BME280;34313;50.780;6.084;2023-01-28T00:41:25;100633.31;;;2.08;100.00
9189;BME280;34313;50.780;6.084;2023-01-28T00:43:51;100634.16;;;2.12;100.00
9189;BME280;34313;50.780;6.084;2023-01-28T00:46:17;100637.69;;;2.04;100.00
9189;BME280;34313;50.780;6.084;2023-01-28T00:48:43;100627.28;;;2.07;100.00
9189;BME280;34313;50.780;6.084;2023-01-28T00:51:10;100624.63;;;2.14;100.00
9189;BME280;34313;50.780;6.084;2023-01-28T00:53:37;100633.31;;;2.13;100.00
9189;BME280;34313;50.780;6.084;2023-01-28T00:56:03;100634.16;;;2.18;100.00
9189;BME280;34313;50.780;6.084;2023-01-28T00:58:30;100629.78;;;2.23;100.00
9189;BME280;34313;50.780;6.084;2023-01-28T01:00:55;100635.84;;;2.23;100.00
9189;BME280;34313;50.780;6.084;2023-01-28T01:03:20;100628.13;;;2.11;100.00
9189;BME280;34313;50.780;6.084;2023-01-28T01:05:46;100623.81;;;2.05;100.00
9189;BME280;34313;50.780;6.084;2023-01-28T01:08:11;100624.63;;;2.12;100.00
9189;BME280;34313;50.780;6.084;2023-01-28T01:10:38;100625.47;;;2.17;100.00
9189;BME280;34313;50.780;6.084;2023-01-28T01:13:07;100622.88;;;2.17;100.00
9189;BME280;34313;50.780;6.084;2023-01-28T01:15:32;100619.41;;;2.21;100.00
9189;BME280;34313;50.780;6.084;2023-01-28T01:17:58;100620.22;;;2.26;100.00
9189;BME280;34313;50.780;6.084;2023-01-28T01:20:26;100622.81;;;2.28;100.00
9189;BME280;34313;50.780;6.084;2023-01-28T01:22:53;100626.34;;;2.19;100.00
9189;BME280;34313;50.780;6.084;2023-01-28T01:25:18;100625.44;;;2.20;100.00
9189;BME280;34313;50.780;6.084;2023-01-28T01:27:47;100630.63;;;2.28;100.00
9189;BME280;34313;50.780;6.084;2023-01-28T01:30:13;100624.59;;;2.24;100.00
9189;BME280;34313;50.780;6.084;2023-01-28T01:32:39;100638.47;;;2.17;100.00
9189;BME280;34313;50.780;6.084;2023-01-28T01:35:06;100638.47;;;2.19;100.00
9189;BME280;34313;50.780;6.084;2023-01-28T01:37:33;100637.53;;;2.27;99.98
9189;BME280;34313;50.780;6.084;2023-01-28T01:39:58;100642.78;;;2.24;100.00
9189;BME280;34313;50.780;6.084;2023-01-28T01:42:26;100638.47;;;2.19;100.00
9189;BME280;34313;50.780;6.084;2023-01-28T01:45:24;100637.63;;;2.14;100.00
9189;BME280;34313;50.780;6.084;2023-01-28T01:48:05;100641.97;;;2.18;100.00
9189;BME280;34313;50.780;6.084;2023-01-28T01:50:42;100640.28;;;2.06;99.96
9189;BME280;34313;50.780;6.084;2023-01-28T01:53:16;100639.44;;;2.01;100.00
9189;BME280;34313;50.780;6.084;2023-01-28T01:55:46;100635.97;;;2.00;100.00
9189;BME280;34313;50.780;6.084;2023-01-28T01:58:15;100639.44;;;1.98;100.00
9189;BME280;34313;50.780;6.084;2023-01-28T02:00:42;100643.78;;;1.97;100.00
9189;BME280;34313;50.780;6.084;2023-01-28T02:03:09;100642.94;;;1.95;100.00
9189;BME280;34313;50.780;6.084;2023-01-28T02:05:35;100646.38;;;1.97;100.00
9189;BME280;34313;50.780;6.084;2023-01-28T02:08:02;100646.38;;;2.02;100.00
9189;BME280;34313;50.780;6.084;2023-01-28T02:11:00;100649.81;;;2.07;100.00
9189;BME280;34313;50.780;6.084;2023-01-28T02:13:35;100644.69;;;1.95;100.00
9189;BME280;34313;50.780;6.084;2023-01-28T02:16:03;100648.97;;;1.97;100.00
9189;BME280;34313;50.780;6.084;2023-01-28T02:18:31;100646.38;;;2.00;100.00
9189;BME280;34313;50.780;6.084;2023-01-28T02:23:53;100641.19;;;2.02;100.00
9189;BME280;34313;50.780;6.084;2023-01-28T02:31:53;100656.78;;;1.93;100.00
9189;BME280;34313;50.780;6.084;2023-01-28T02:36:57;100650.75;;;1.94;100.00
9189;BME280;34313;50.780;6.084;2023-01-28T02:39:28;100642.09;;;1.88;100.00
9189;BME280;34313;50.780;6.084;2023-01-28T02:42:00;100648.94;;;2.10;100.00
9189;BME280;34313;50.780;6.084;2023-01-28T02:44:28;100645.50;;;2.01;100.00
9189;BME280;34313;50.780;6.084;2023-01-28T02:46:53;100639.44;;;2.04;100.00
9189;BME280;34313;50.780;6.084;2023-01-28T02:49:47;100648.06;;;2.07;100.00
9189;BME280;34313;50.780;6.084;2023-01-28T02:53:36;100652.38;;;2.13;100.00
9189;BME280;34313;50.780;6.084;2023-01-28T02:55:58;100660.16;;;2.19;100.00
9189;BME280;34313;50.780;6.084;2023-01-28T03:01:23;100667.06;;;2.17;100.00
9189;BME280;34313;50.780;6.084;2023-01-28T03:03:58;100662.75;;;2.18;100.00
9189;BME280;34313;50.780;6.084;2023-01-28T03:06:32;100661.06;;;2.09;100.00
9189;BME280;34313;50.780;6.084;2023-01-28T03:09:05;100662.72;;;2.24;100.00
9189;BME280;34313;50.780;6.084;2023-01-28T03:11:54;100663.56;;;2.31;100.00
9189;BME280;34313;50.780;6.084;2023-01-28T03:14:39;100665.31;;;2.27;100.00
9189;BME280;34313;50.780;6.084;2023-01-28T03:20:08;100670.50;;;2.27;100.00
9189;BME280;34313;50.780;6.084;2023-01-28T03:22:54;100673.16;;;2.18;100.00
9189;BME280;34313;50.780;6.084;2023-01-28T03:25:42;100683.59;;;2.10;100.00
9189;BME280;34313;50.780;6.084;2023-01-28T03:28:29;100674.97;;;2.00;100.00
9189;BME280;34313;50.780;6.084;2023-01-28T03:31:16;100682.78;;;1.96;100.00
9189;BME280;34313;50.780;6.084;2023-01-28T03:34:03;100670.69;;;1.93;100.00
9189;BME280;34313;50.780;6.084;2023-01-28T03:36:49;100684.53;;;1.92;100.00
9189;BME280;34313;50.780;6.084;2023-01-28T03:39:22;100681.09;;;1.92;100.00
9189;BME280;34313;50.780;6.084;2023-01-28T03:44:21;100685.38;;;2.03;100.00
9189;BME280;34313;50.780;6.084;2023-01-28T03:47:05;100680.19;;;2.03;100.00
9189;BME280;34313;50.780;6.084;2023-01-28T03:49:33;100684.50;;;2.03;100.00
9189;BME280;34313;50.780;6.084;2023-01-28T03:51:58;100687.13;;;1.95;100.00
9189;BME280;34313;50.780;6.084;2023-01-28T03:54:23;100688.03;;;1.89;100.00
9189;BME280;34313;50.780;6.084;2023-01-28T03:56:49;100676.78;;;1.83;100.00
9189;BME280;34313;50.780;6.084;2023-01-28T03:59:14;100686.38;;;1.68;100.00
9189;BME280;34313;50.780;6.084;2023-01-28T04:01:39;100687.22;;;1.64;100.00
9189;BME280;34313;50.780;6.084;2023-01-28T04:04:05;100686.38;;;1.67;100.00
9189;BME280;34313;50.780;6.084;2023-01-28T04:06:30;100686.38;;;1.64;100.00
9189;BME280;34313;50.780;6.084;2023-01-28T04:08:56;100689.84;;;1.54;100.00
9189;BME280;34313;50.780;6.084;2023-01-28T04:11:24;100694.16;;;1.59;100.00
9189;BME280;34313;50.780;6.084;2023-01-28T04:13:50;100697.66;;;1.52;100.00
9189;BME280;34313;50.780;6.084;2023-01-28T04:16:17;100695.03;;;1.50;100.00
9189;BME280;34313;50.780;6.084;2023-01-28T04:18:43;100687.28;;;1.46;100.00
9189;BME280;34313;50.780;6.084;2023-01-28T04:21:09;100691.59;;;1.53;100.00
9189;BME280;34313;50.780;6.084;2023-01-28T04:23:35;100693.34;;;1.51;100.00
9189;BME280;34313;50.780;6.084;2023-01-28T04:26:00;100698.53;;;1.49;100.00
9189;BME280;34313;50.780;6.084;2023-01-28T04:28:26;100699.41;;;1.41;100.00
9189;BME280;34313;50.780;6.084;2023-01-28T04:30:51;100702.00;;;1.42;100.00
9189;BME280;34313;50.780;6.084;2023-01-28T04:33:17;100693.34;;;1.37;100.00
9189;BME280;34313;50.780;6.084;2023-01-28T04:35:42;100698.56;;;1.23;100.00
9189;BME280;34313;50.780;6.084;2023-01-28T04:38:07;100707.22;;;1.21;100.00
9189;BME280;34313;50.780;6.084;2023-01-28T04:40:33;100708.94;;;1.22;100.00
9189;BME280;34313;50.780;6.084;2023-01-28T04:42:58;100708.06;;;1.27;100.00
9189;BME280;34313;50.780;6.084;2023-01-28T04:45:23;100710.69;;;1.30;100.00
9189;BME280;34313;50.780;6.084;2023-01-28T04:47:49;100717.63;;;1.18;100.00
9189;BME280;34313;50.780;6.084;2023-01-28T04:50:15;100716.72;;;1.19;100.00
9189;BME280;34313;50.780;6.084;2023-01-28T04:52:41;100715.00;;;1.11;100.00
9189;BME280;34313;50.780;6.084;2023-01-28T04:55:07;100724.53;;;1.09;100.00
9189;BME280;34313;50.780;6.084;2023-01-28T04:57:32;100721.94;;;1.17;100.00
9189;BME280;34313;50.780;6.084;2023-01-28T04:59:57;100721.94;;;1.22;100.00
9189;BME280;34313;50.780;6.084;2023-01-28T05:02:23;100722.78;;;1.22;100.00
9189;BME280;34313;50.780;6.084;2023-01-28T05:04:48;100717.63;;;1.15;100.00
9189;BME280;34313;50.780;6.084;2023-01-28T05:07:13;100726.25;;;1.10;100.00
9189;BME280;34313;50.780;6.084;2023-01-28T05:09:39;100722.78;;;1.08;100.00
9189;BME280;34313;50.780;6.084;2023-01-28T05:12:04;100720.22;;;1.13;100.00
9189;BME280;34313;50.780;6.084;2023-01-28T05:14:29;100724.53;;;1.16;100.00
9189;BME280;34313;50.780;6.084;2023-01-28T05:16:55;100715.88;;;1.17;100.00
9189;BME280;34313;50.780;6.084;2023-01-28T05:19:20;100724.50;;;1.28;100.00
9189;BME280;34313;50.780;6.084;2023-01-28T05:21:45;100728.84;;;1.27;100.00
9189;BME280;34313;50.780;6.084;2023-01-28T05:24:11;100723.66;;;1.27;100.00
9189;BME280;34313;50.780;6.084;2023-01-28T05:26:36;100726.25;;;1.30;100.00
9189;BME280;34313;50.780;6.084;2023-01-28T05:29:03;100720.19;;;1.22;100.00
9189;BME280;34313;50.780;6.084;2023-01-28T05:31:28;100722.78;;;1.22;100.00
9189;BME280;34313;50.780;6.084;2023-01-28T05:33:54;100734.91;;;1.16;100.00
9189;BME280;34313;50.780;6.084;2023-01-28T05:36:19;100723.66;;;1.18;100.00
9189;BME280;34313;50.780;6.084;2023-01-28T05:38:45;100724.53;;;1.20;100.00
9189;BME280;34313;50.780;6.084;2023-01-28T05:41:10;100720.19;;;1.22;100.00
9189;BME280;34313;50.780;6.084;2023-01-28T05:43:36;100727.13;;;1.08;100.00
9189;BME280;34313;50.780;6.084;2023-01-28T05:46:01;100730.59;;;1.18;100.00
9189;BME280;34313;50.780;6.084;2023-01-28T05:48:27;100724.53;;;1.20;100.00
9189;BME280;34313;50.780;6.084;2023-01-28T05:50:52;100734.94;;;1.23;100.00
9189;BME280;34313;50.780;6.084;2023-01-28T05:53:17;100723.66;;;1.10;100.00
9189;BME280;34313;50.780;6.084;2023-01-28T05:55:47;100734.91;;;1.08;100.00
9189;BME280;34313;50.780;6.084;2023-01-28T05:58:12;100740.97;;;1.02;100.00
9189;BME280;34313;50.780;6.084;2023-01-28T06:00:37;100746.16;;;1.01;100.00
9189;BME280;34313;50.780;6.084;2023-01-28T06:03:03;100746.16;;;0.99;100.00
9189;BME280;34313;50.780;6.084;2023-01-28T06:05:28;100748.78;;;1.02;100.00
9189;BME280;34313;50.780;6.084;2023-01-28T06:07:53;100751.34;;;1.01;100.00
9189;BME280;34313;50.780;6.084;2023-01-28T06:10:19;100747.03;;;1.09;100.00
9189;BME280;34313;50.780;6.084;2023-01-28T06:12:44;100740.97;;;1.10;100.00
9189;BME280;34313;50.780;6.084;2023-01-28T06:15:10;100753.97;;;1.15;100.00
9189;BME280;34313;50.780;6.084;2023-01-28T06:17:35;100752.22;;;1.17;100.00
9189;BME280;34313;50.780;6.084;2023-01-28T06:20:00;100761.75;;;1.21;100.00
9189;BME280;34313;50.780;6.084;2023-01-28T06:22:26;100760.03;;;1.29;100.00
9189;BME280;34313;50.780;6.084;2023-01-28T06:24:51;100765.22;;;1.29;99.88
9189;BME280;34313;50.780;6.084;2023-01-28T06:27:16;100766.94;;;1.25;99.10
9189;BME280;34313;50.780;6.084;2023-01-28T06:29:42;100769.56;;;1.27;99.61
9189;BME280;34313;50.780;6.084;2023-01-28T06:32:07;100760.00;;;1.26;98.86
9189;BME280;34313;50.780;6.084;2023-01-28T06:34:32;100761.75;;;1.30;98.77
9189;BME280;34313;50.780;6.084;2023-01-28T06:36:58;100768.69;;;1.37;98.40
9189;BME280;34313;50.780;6.084;2023-01-28T06:39:23;100766.09;;;1.37;98.03
9189;BME280;34313;50.780;6.084;2023-01-28T06:41:51;100760.03;;;1.21;97.33
9189;BME280;34313;50.780;6.084;2023-01-28T06:44:16;100769.53;;;1.15;97.25
9189;BME280;34313;50.780;6.084;2023-01-28T06:46:42;100743.56;;;1.11;96.78
9189;BME280;34313;50.780;6.084;2023-01-28T06:49:07;100775.59;;;1.06;97.23
9189;BME280;34313;50.780;6.084;2023-01-28T06:51:33;100771.25;;;1.17;96.83
9189;BME280;34313;50.780;6.084;2023-01-28T06:53:58;100770.41;;;1.09;96.71
9189;BME280;34313;50.780;6.084;2023-01-28T06:56:23;100773.00;;;1.18;97.06
9189;BME280;34313;50.780;6.084;2023-01-28T06:58:49;100773.00;;;1.18;96.57
9189;BME280;34313;50.780;6.084;2023-01-28T07:01:14;100766.94;;;1.10;96.50
9189;BME280;34313;50.780;6.084;2023-01-28T07:03:40;100762.59;;;1.04;96.76
9189;BME280;34313;50.780;6.084;2023-01-28T07:06:05;100771.28;;;1.09;97.02
9189;BME280;34313;50.780;6.084;2023-01-28T07:08:30;100769.53;;;1.07;96.88
9189;BME280;34313;50.780;6.084;2023-01-28T07:10:57;100764.34;;;1.08;96.69
9189;BME280;34313;50.780;6.084;2023-01-28T07:13:22;100758.28;;;1.06;96.96
9189;BME280;34313;50.780;6.084;2023-01-28T07:15:48;100769.53;;;1.21;96.61
9189;BME280;34313;50.780;6.084;2023-01-28T07:18:13;100771.28;;;1.22;97.00
9189;BME280;34313;50.780;6.084;2023-01-28T07:20:39;100769.56;;;1.18;96.32
9189;BME280;34313;50.780;6.084;2023-01-28T07:23:04;100768.66;;;1.17;95.81
9189;BME280;34313;50.780;6.084;2023-01-28T07:25:29;100781.66;;;1.20;95.80
9189;BME280;34313;50.780;6.084;2023-01-28T07:27:55;100774.75;;;1.18;96.20
9189;BME280;34313;50.780;6.084;2023-01-28T07:30:21;100776.47;;;1.17;95.32
9189;BME280;34313;50.780;6.084;2023-01-28T07:32:54;100781.66;;;1.09;95.46
9189;BME280;34313;50.780;6.084;2023-01-28T07:35:20;100773.84;;;1.03;95.47
9189;BME280;34313;50.780;6.084;2023-01-28T07:37:56;100783.38;;;1.10;96.23
9189;BME280;34313;50.780;6.084;2023-01-28T07:40:23;100780.78;;;1.17;96.02
9189;BME280;34313;50.780;6.084;2023-01-28T07:42:49;100774.72;;;1.08;94.35
9189;BME280;34313;50.780;6.084;2023-01-28T07:45:14;100779.06;;;1.06;93.76
9189;BME280;34313;50.780;6.084;2023-01-28T07:47:40;100785.13;;;1.11;93.63
9189;BME280;34313;50.780;6.084;2023-01-28T07:50:07;100787.72;;;1.22;94.03
9189;BME280;34313;50.780;6.084;2023-01-28T07:52:32;100786.88;;;1.32;92.97
9189;BME280;34313;50.780;6.084;2023-01-28T07:55:08;100788.59;;;1.17;88.42
9189;BME280;34313;50.780;6.084;2023-01-28T07:57:34;100785.97;;;1.15;90.69
9189;BME280;34313;50.780;6.084;2023-01-28T07:59:59;100788.59;;;1.17;90.03
9189;BME280;34313;50.780;6.084;2023-01-28T08:02:24;100793.78;;;1.17;89.27
9189;BME280;34313;50.780;6.084;2023-01-28T08:04:50;100786.00;;;1.23;88.78
9189;BME280;34313;50.780;6.084;2023-01-28T08:07:15;100789.44;;;1.20;89.80
9189;BME280;34313;50.780;6.084;2023-01-28T08:09:40;100788.59;;;1.24;89.86
9189;BME280;34313;50.780;6.084;2023-01-28T08:12:06;100792.91;;;1.25;88.61
9189;BME280;34313;50.780;6.084;2023-01-28T08:14:31;100786.84;;;1.31;87.60
9189;BME280;34313;50.780;6.084;2023-01-28T08:16:56;100799.84;;;1.34;86.22
9189;BME280;34313;50.780;6.084;2023-01-28T08:19:22;100799.00;;;1.35;86.01
9189;BME280;34313;50.780;6.084;2023-01-28T08:21:47;100810.25;;;1.25;85.34
9189;BME280;34313;50.780;6.084;2023-01-28T08:24:12;100814.56;;;1.29;85.61
9189;BME280;34313;50.780;6.084;2023-01-28T08:26:38;100818.03;;;1.40;86.02
9189;BME280;34313;50.780;6.084;2023-01-28T08:29:03;100818.91;;;1.47;85.62
9189;BME280;34313;50.780;6.084;2023-01-28T08:31:29;100819.78;;;1.41;84.09
9189;BME280;34313;50.780;6.084;2023-01-28T08:33:55;100824.97;;;1.50;83.22
9189;BME280;34313;50.780;6.084;2023-01-28T08:36:20;100826.69;;;1.59;83.27
9189;BME280;34313;50.780;6.084;2023-01-28T08:38:46;100827.56;;;1.67;82.59
9189;BME280;34313;50.780;6.084;2023-01-28T08:41:15;100837.09;;;1.65;83.27
9189;BME280;34313;50.780;6.084;2023-01-28T08:43:40;100833.63;;;1.62;82.26
9189;BME280;34313;50.780;6.084;2023-01-28T08:46:05;100827.56;;;1.61;82.31
9189;BME280;34313;50.780;6.084;2023-01-28T08:48:31;100831.88;;;1.59;82.14
9189;BME280;34313;50.780;6.084;2023-01-28T08:50:57;100828.44;;;1.65;81.13
9189;BME280;34313;50.780;6.084;2023-01-28T08:53:23;100837.94;;;1.50;80.44
9189;BME280;34313;50.780;6.084;2023-01-28T08:55:49;100836.25;;;1.53;80.94
9189;BME280;34313;50.780;6.084;2023-01-28T08:58:16;100836.25;;;1.62;81.35
9189;BME280;34313;50.780;6.084;2023-01-28T09:00:42;100847.50;;;1.76;81.48
9189;BME280;34313;50.780;6.084;2023-01-28T09:03:09;100841.44;;;1.65;80.46
9189;BME280;34313;50.780;6.084;2023-01-28T09:05:35;100850.94;;;1.78;80.14
9189;BME280;34313;50.780;6.084;2023-01-28T09:08:06;100853.56;;;1.72;80.63
9189;BME280;34313;50.780;6.084;2023-01-28T09:10:32;100850.09;;;1.64;80.42
9189;BME280;34313;50.780;6.084;2023-01-28T09:12:57;100860.50;;;1.65;79.91
9189;BME280;34313;50.780;6.084;2023-01-28T09:15:23;100860.47;;;1.70;80.17
9189;BME280;34313;50.780;6.084;2023-01-28T09:17:48;100869.16;;;1.69;80.22
9189;BME280;34313;50.780;6.084;2023-01-28T09:20:14;100874.34;;;1.81;80.10
9189;BME280;34313;50.780;6.084;2023-01-28T09:22:39;100879.56;;;1.83;79.67
9189;BME280;34313;50.780;6.084;2023-01-28T09:25:05;100881.25;;;1.98;80.19
9189;BME280;34313;50.780;6.084;2023-01-28T09:27:32;100882.16;;;1.83;78.88
9189;BME280;34313;50.780;6.084;2023-01-28T09:29:57;100886.47;;;1.84;77.97
9189;BME280;34313;50.780;6.084;2023-01-28T09:32:22;100885.63;;;1.85;78.17
9189;BME280;34313;50.780;6.084;2023-01-28T09:34:49;100889.94;;;1.87;78.50
9189;BME280;34313;50.780;6.084;2023-01-28T09:37:14;100894.28;;;1.92;76.94
9189;BME280;34313;50.780;6.084;2023-01-28T09:39:39;100895.16;;;1.95;78.08
9189;BME280;34313;50.780;6.084;2023-01-28T09:45:01;100902.06;;;1.96;76.68
9189;BME280;34313;50.780;6.084;2023-01-28T09:47:46;100901.19;;;2.06;76.84
9189;BME280;34313;50.780;6.084;2023-01-28T09:50:33;100902.94;;;2.09;75.99
9189;BME280;34313;50.780;6.084;2023-01-28T09:53:05;100892.50;;;2.12;75.83
9189;BME280;34313;50.780;6.084;2023-01-28T09:55:37;100901.16;;;2.30;76.11
9189;BME280;34313;50.780;6.084;2023-01-28T09:58:06;100897.66;;;2.43;75.88
9189;BME280;34313;50.780;6.084;2023-01-28T10:06:25;100907.25;;;2.12;73.39
9189;BME280;34313;50.780;6.084;2023-01-28T10:14:08;100902.06;;;1.51;74.19
9189;BME280;34313;50.780;6.084;2023-01-28T10:16:42;100901.22;;;1.53;74.63
9189;BME280;34313;50.780;6.084;2023-01-28T10:19:31;100912.47;;;1.56;75.27
9189;BME280;34313;50.780;6.084;2023-01-28T10:22:20;100919.38;;;1.48;75.53
9189;BME280;34313;50.780;6.084;2023-01-28T10:24:59;100916.75;;;1.42;76.25
9189;BME280;34313;50.780;6.084;2023-01-28T10:27:30;100914.16;;;1.26;77.09
9189;BME280;34313;50.780;6.084;2023-01-28T10:29:58;100917.66;;;1.55;77.23
9189;BME280;34313;50.780;6.084;2023-01-28T10:32:32;100906.38;;;1.54;76.21
9189;BME280;34313;50.780;6.084;2023-01-28T10:35:01;100909.84;;;1.50;76.42
9189;BME280;34313;50.780;6.084;2023-01-28T10:37:30;100914.09;;;1.20;77.20
9189;BME280;34313;50.780;6.084;2023-01-28T10:39:59;100913.28;;;1.37;77.64
9189;BME280;34313;50.780;6.084;2023-01-28T10:42:28;100921.91;;;1.28;78.31
9189;BME280;34313;50.780;6.084;2023-01-28T10:45:01;100901.19;;;1.49;77.76
9189;BME280;34313;50.780;6.084;2023-01-28T10:47:37;100913.28;;;1.35;76.62
9189;BME280;34313;50.780;6.084;2023-01-28T10:50:03;100914.97;;;1.22;77.09
9189;BME280;34313;50.780;6.084;2023-01-28T10:52:29;100916.69;;;1.16;77.24
9189;BME280;34313;50.780;6.084;2023-01-28T10:54:59;100908.97;;;1.45;76.54
9189;BME280;34313;50.780;6.084;2023-01-28T10:57:24;100901.19;;;1.68;75.61
9189;BME280;34313;50.780;6.084;2023-01-28T10:59:50;100905.53;;;1.57;74.38
9189;BME280;34313;50.780;6.084;2023-01-28T11:02:28;100904.66;;;1.58;74.08
9189;BME280;34313;50.780;6.084;2023-01-28T11:05:01;100908.16;;;1.83;74.79
9189;BME280;34313;50.780;6.084;2023-01-28T11:07:27;100911.63;;;2.03;74.67
9189;BME280;34313;50.780;6.084;2023-01-28T11:09:53;100908.97;;;2.19;74.27
9189;BME280;34313;50.780;6.084;2023-01-28T11:12:23;100907.22;;;2.36;73.77
9189;BME280;34313;50.780;6.084;2023-01-28T11:15:01;100901.09;;;2.56;72.65
9189;BME280;34313;50.780;6.084;2023-01-28T11:17:33;100915.88;;;2.41;69.44
9189;BME280;34313;50.780;6.084;2023-01-28T11:20:09;100914.13;;;2.48;70.15
9189;BME280;34313;50.780;6.084;2023-01-28T11:22:39;100915.00;;;2.56;71.09
9189;BME280;34313;50.780;6.084;2023-01-28T11:25:15;100901.03;;;2.76;70.71
9189;BME280;34313;50.780;6.084;2023-01-28T11:27:49;100898.44;;;2.79;68.82
9189;BME280;34313;50.780;6.084;2023-01-28T11:30:21;100908.75;;;2.94;68.76
9189;BME280;34313;50.780;6.084;2023-01-28T11:33:13;100899.44;;;2.33;68.14
9189;BME280;34313;50.780;6.084;2023-01-28T11:35:40;100905.50;;;2.14;69.97
9189;BME280;34313;50.780;6.084;2023-01-28T11:38:24;100914.19;;;1.93;70.04
9189;BME280;34313;50.780;6.084;2023-01-28T11:43:17;100900.34;;;1.83;70.23
9189;BME280;34313;50.780;6.084;2023-01-28T11:57:22;100898.53;;;2.46;68.40
9189;BME280;34313;50.780;6.084;2023-01-28T12:00:23;100906.28;;;2.65;67.67
9189;BME280;34313;50.780;6.084;2023-01-28T12:03:50;100892.34;;;2.81;66.80
9189;BME280;34313;50.780;6.084;2023-01-28T12:05:52;100901.09;;;2.67;66.95
9189;BME280;34313;50.780;6.084;2023-01-28T12:08:23;100902.00;;;2.35;67.07
9189;BME280;34313;50.780;6.084;2023-01-28T12:11:15;100903.81;;;1.99;69.71
9189;BME280;34313;50.780;6.084;2023-01-28T12:21:11;100883.88;;;2.05;67.85
9189;BME280;34313;50.780;6.084;2023-01-28T12:25:52;100886.47;;;1.85;67.96
9189;BME280;34313;50.780;6.084;2023-01-28T12:34:09;100883.00;;;1.83;68.49
9189;BME280;34313;50.780;6.084;2023-01-28T12:42:17;100884.72;;;2.23;68.52
9189;BME280;34313;50.780;6.084;2023-01-28T12:44:56;100859.56;;;2.22;68.09
9189;BME280;34313;50.780;6.084;2023-01-28T12:47:35;100864.78;;;2.14;67.79
9189;BME280;34313;50.780;6.084;2023-01-28T12:50:22;100863.00;;;2.21;68.23
9189;BME280;34313;50.780;6.084;2023-01-28T12:52:59;100856.97;;;2.08;68.77
9189;BME280;34313;50.780;6.084;2023-01-28T12:55:42;100856.16;;;1.98;69.16
9189;BME280;34313;50.780;6.084;2023-01-28T12:58:23;100863.91;;;2.15;68.82
9189;BME280;34313;50.780;6.084;2023-01-28T13:01:01;100857.84;;;2.10;68.53
9189;BME280;34313;50.780;6.084;2023-01-28T13:03:36;100850.91;;;2.21;67.51
9189;BME280;34313;50.780;6.084;2023-01-28T13:06:12;100843.03;;;2.48;67.28
9189;BME280;34313;50.780;6.084;2023-01-28T13:08:39;100834.81;;;3.23;88.46
9189;BME280;34313;50.780;6.084;2023-01-28T13:11:11;100837.44;;;3.21;69.14
9189;BME280;34313;50.780;6.084;2023-01-28T13:13:39;100814.75;;;3.36;66.25
9189;BME280;34313;50.780;6.084;2023-01-28T13:16:10;100818.34;;;3.16;64.48
9189;BME280;34313;50.780;6.084;2023-01-28T13:21:50;100830.53;;;3.17;64.64
9189;BME280;34313;50.780;6.084;2023-01-28T13:31:44;100794.09;;;3.08;63.23
9189;BME280;34313;50.780;6.084;2023-01-28T13:34:29;100794.25;;;2.85;64.96
9189;BME280;34313;50.780;6.084;2023-01-28T13:36:59;100769.38;;;2.27;66.37
9189;BME280;34313;50.780;6.084;2023-01-28T13:39:27;100765.91;;;2.20;67.66
9189;BME280;34313;50.780;6.084;2023-01-28T13:42:28;100782.28;;;2.47;67.06
9189;BME280;34313;50.780;6.084;2023-01-28T13:44:55;100805.69;;;2.52;66.28
9189;BME280;34313;50.780;6.084;2023-01-28T13:47:32;100806.59;;;2.43;66.49
9189;BME280;34313;50.780;6.084;2023-01-28T13:52:28;100794.38;;;2.63;66.05
9189;BME280;34313;50.780;6.084;2023-01-28T13:58:03;100810.13;;;2.28;66.72
9189;BME280;34313;50.780;6.084;2023-01-28T14:00:40;100809.19;;;2.41;67.06
9189;BME280;34313;50.780;6.084;2023-01-28T14:17:03;100850.91;;;2.03;69.39
9189;BME280;34313;50.780;6.084;2023-01-28T14:19:36;100845.75;;;1.97;69.57
9189;BME280;34313;50.780;6.084;2023-01-28T14:22:07;100845.72;;;1.87;68.96
9189;BME280;34313;50.780;6.084;2023-01-28T14:24:33;100857.88;;;1.70;69.47
9189;BME280;34313;50.780;6.084;2023-01-28T14:27:04;100871.75;;;1.58;69.95
9189;BME280;34313;50.780;6.084;2023-01-28T14:32:25;100846.59;;;1.97;69.39
9189;BME280;34313;50.780;6.084;2023-01-28T14:34:53;100837.88;;;2.14;68.78
9189;BME280;34313;50.780;6.084;2023-01-28T14:37:22;100857.88;;;2.07;68.73
9189;BME280;34313;50.780;6.084;2023-01-28T14:42:26;100844.78;;;2.39;68.10
9189;BME280;34313;50.780;6.084;2023-01-28T14:50:42;100830.91;;;2.37;68.42
9189;BME280;34313;50.780;6.084;2023-01-28T14:56:01;100815.41;;;2.02;69.00
9189;BME280;34313;50.780;6.084;2023-01-28T14:58:38;100811.06;;;2.01;69.50
9189;BME280;34313;50.780;6.084;2023-01-28T15:01:24;100810.22;;;1.89;70.29
9189;BME280;34313;50.780;6.084;2023-01-28T15:03:50;100816.31;;;1.61;70.71
9189;BME280;34313;50.780;6.084;2023-01-28T15:06:18;100818.91;;;1.50;70.87
9189;BME280;34313;50.780;6.084;2023-01-28T15:08:45;100827.56;;;1.43;72.17
9189;BME280;34313;50.780;6.084;2023-01-28T15:11:14;100826.69;;;1.25;71.90